sensor_id;sensor_type;location;lat;lon;timestamp;P1;durP1;ratioP1;P2;durP2;ratioP2
64210;SDS011;50528;48.514;14.394;2022-11-15T00:00:05;8.20;;;5.00;;
64210;SDS011;50528;48.514;14.394;2022-11-15T00:01:38;8.40;;;5.70;;
64210;SDS011;50528;48.514;14.394;2022-11-15T00:03:00;8.30;;;5.40;;
64210;SDS011;50528;48.514;14.394;2022-11-15T00:04:23;8.50;;;5.40;;
64210;SDS011;50528;48.514;14.394;2022-11-15T00:05:45;9.70;;;5.70;;
64210;SDS011;50528;48.514;14.394;2022-11-15T00:07:07;8.20;;;5.50;;
64210;SDS011;50528;48.514;14.394;2022-11-15T00:08:38;8.40;;;5.40;;
64210;SDS011;50528;48.514;14.394;2022-11-15T00:09:59;8.30;;;5.50;;
64210;SDS011;50528;48.514;14.394;2022-11-15T00:11:21;9.70;;;5.70;;
64210;SDS011;50528;48.514;14.394;2022-11-15T00:12:44;9.90;;;5.40;;
64210;SDS011;50528;48.514;14.394;2022-11-15T00:14:06;8.40;;;5.60;;
64210;SDS011;50528;48.514;14.394;2022-11-15T00:15:27;9.30;;;5.60;;
64210;SDS011;50528;48.514;14.394;2022-11-15T00:16:49;8.80;;;5.50;;
64210;SDS011;50528;48.514;14.394;2022-11-15T00:18:12;9.70;;;5.90;;
64210;SDS011;50528;48.514;14.394;2022-11-15T00:19:35;7.90;;;4.90;;
64210;SDS011;50528;48.514;14.394;2022-11-15T00:21:02;8.30;;;5.10;;
64210;SDS011;50528;48.514;14.394;2022-11-15T00:22:31;9.80;;;5.20;;
64210;SDS011;50528;48.514;14.394;2022-11-15T00:23:55;8.60;;;5.50;;
64210;SDS011;50528;48.514;14.394;2022-11-15T00:25:16;8.40;;;5.30;;
64210;SDS011;50528;48.514;14.394;2022-11-15T00:26:39;9.00;;;5.90;;
64210;SDS011;50528;48.514;14.394;2022-11-15T00:28:00;9.60;;;5.10;;
64210;SDS011;50528;48.514;14.394;2022-11-15T00:29:24;8.30;;;5.20;;
64210;SDS011;50528;48.514;14.394;2022-11-15T00:30:46;7.90;;;5.20;;
64210;SDS011;50528;48.514;14.394;2022-11-15T00:32:11;9.10;;;5.60;;
64210;SDS011;50528;48.514;14.394;2022-11-15T00:33:33;9.20;;;5.50;;
64210;SDS011;50528;48.514;14.394;2022-11-15T00:34:56;7.60;;;5.10;;
64210;SDS011;50528;48.514;14.394;2022-11-15T00:36:17;7.90;;;5.40;;
64210;SDS011;50528;48.514;14.394;2022-11-15T00:37:40;9.00;;;6.00;;
64210;SDS011;50528;48.514;14.394;2022-11-15T00:39:05;7.90;;;4.90;;
64210;SDS011;50528;48.514;14.394;2022-11-15T00:40:27;7.90;;;5.20;;
64210;SDS011;50528;48.514;14.394;2022-11-15T00:41:49;7.80;;;5.10;;
64210;SDS011;50528;48.514;14.394;2022-11-15T00:43:11;7.80;;;5.10;;
64210;SDS011;50528;48.514;14.394;2022-11-15T00:44:33;10.40;;;5.20;;
64210;SDS011;50528;48.514;14.394;2022-11-15T00:45:55;9.30;;;5.00;;
64210;SDS011;50528;48.514;14.394;2022-11-15T00:47:18;7.20;;;4.60;;
64210;SDS011;50528;48.514;14.394;2022-11-15T00:48:42;8.20;;;4.90;;
64210;SDS011;50528;48.514;14.394;2022-11-15T00:50:04;7.70;;;4.80;;
64210;SDS011;50528;48.514;14.394;2022-11-15T00:51:26;8.20;;;4.90;;
64210;SDS011;50528;48.514;14.394;2022-11-15T00:52:48;8.20;;;5.00;;
64210;SDS011;50528;48.514;14.394;2022-11-15T00:54:10;8.10;;;5.00;;
64210;SDS011;50528;48.514;14.394;2022-11-15T00:55:32;8.00;;;5.10;;
64210;SDS011;50528;48.514;14.394;2022-11-15T00:56:54;7.90;;;5.30;;
64210;SDS011;50528;48.514;14.394;2022-11-15T00:58:17;7.50;;;5.20;;
64210;SDS011;50528;48.514;14.394;2022-11-15T00:59:39;7.50;;;4.90;;
64210;SDS011;50528;48.514;14.394;2022-11-15T01:01:07;7.40;;;4.80;;
64210;SDS011;50528;48.514;14.394;2022-11-15T01:02:34;9.40;;;5.20;;
64210;SDS011;50528;48.514;14.394;2022-11-15T01:03:58;8.00;;;5.10;;
64210;SDS011;50528;48.514;14.394;2022-11-15T01:05:21;8.40;;;5.00;;
64210;SDS011;50528;48.514;14.394;2022-11-15T01:06:45;8.20;;;4.70;;
64210;SDS011;50528;48.514;14.394;2022-11-15T01:08:12;7.40;;;4.70;;
64210;SDS011;50528;48.514;14.394;2022-11-15T01:09:35;7.30;;;5.00;;
64210;SDS011;50528;48.514;14.394;2022-11-15T01:11:01;7.90;;;4.80;;
64210;SDS011;50528;48.514;14.394;2022-11-15T01:12:27;7.20;;;4.60;;
64210;SDS011;50528;48.514;14.394;2022-11-15T01:13:49;6.80;;;4.60;;
64210;SDS011;50528;48.514;14.394;2022-11-15T01:15:12;6.80;;;4.60;;
64210;SDS011;50528;48.514;14.394;2022-11-15T01:16:34;7.70;;;5.20;;
64210;SDS011;50528;48.514;14.394;2022-11-15T01:17:56;8.40;;;5.00;;
64210;SDS011;50528;48.514;14.394;2022-11-15T01:19:18;9.00;;;5.50;;
64210;SDS011;50528;48.514;14.394;2022-11-15T01:20:41;9.00;;;5.40;;
64210;SDS011;50528;48.514;14.394;2022-11-15T01:22:03;7.80;;;5.00;;
64210;SDS011;50528;48.514;14.394;2022-11-15T01:23:25;7.60;;;5.10;;
64210;SDS011;50528;48.514;14.394;2022-11-15T01:24:50;7.40;;;5.10;;
64210;SDS011;50528;48.514;14.394;2022-11-15T01:26:14;7.30;;;5.00;;
64210;SDS011;50528;48.514;14.394;2022-11-15T01:27:36;8.30;;;5.70;;
64210;SDS011;50528;48.514;14.394;2022-11-15T01:28:58;7.30;;;4.80;;
64210;SDS011;50528;48.514;14.394;2022-11-15T01:30:20;7.60;;;5.00;;
64210;SDS011;50528;48.514;14.394;2022-11-15T01:31:44;8.30;;;5.00;;
64210;SDS011;50528;48.514;14.394;2022-11-15T01:33:06;7.90;;;5.20;;
64210;SDS011;50528;48.514;14.394;2022-11-15T01:34:29;9.70;;;5.50;;
64210;SDS011;50528;48.514;14.394;2022-11-15T01:35:52;8.90;;;5.60;;
64210;SDS011;50528;48.514;14.394;2022-11-15T01:37:13;11.20;;;5.40;;
64210;SDS011;50528;48.514;14.394;2022-11-15T01:38:36;8.00;;;5.10;;
64210;SDS011;50528;48.514;14.394;2022-11-15T01:39:58;7.20;;;4.90;;
64210;SDS011;50528;48.514;14.394;2022-11-15T01:41:21;7.90;;;5.10;;
64210;SDS011;50528;48.514;14.394;2022-11-15T01:42:49;7.00;;;4.80;;
64210;SDS011;50528;48.514;14.394;2022-11-15T01:46:06;6.80;;;4.50;;
64210;SDS011;50528;48.514;14.394;2022-11-15T01:48:04;7.00;;;4.50;;
64210;SDS011;50528;48.514;14.394;2022-11-15T01:49:32;8.60;;;4.50;;
64210;SDS011;50528;48.514;14.394;2022-11-15T01:50:57;6.70;;;4.90;;
64210;SDS011;50528;48.514;14.394;2022-11-15T01:52:21;7.90;;;5.10;;
64210;SDS011;50528;48.514;14.394;2022-11-15T01:53:49;7.30;;;4.80;;
64210;SDS011;50528;48.514;14.394;2022-11-15T01:55:16;6.40;;;4.40;;
64210;SDS011;50528;48.514;14.394;2022-11-15T01:56:55;7.00;;;4.80;;
64210;SDS011;50528;48.514;14.394;2022-11-15T01:58:23;7.40;;;5.00;;
64210;SDS011;50528;48.514;14.394;2022-11-15T01:59:45;7.20;;;5.20;;
64210;SDS011;50528;48.514;14.394;2022-11-15T02:01:08;6.70;;;4.60;;
64210;SDS011;50528;48.514;14.394;2022-11-15T02:02:30;8.80;;;4.90;;
64210;SDS011;50528;48.514;14.394;2022-11-15T02:04:02;8.40;;;4.00;;
64210;SDS011;50528;48.514;14.394;2022-11-15T02:05:30;8.60;;;5.00;;
64210;SDS011;50528;48.514;14.394;2022-11-15T02:06:54;8.00;;;4.40;;
64210;SDS011;50528;48.514;14.394;2022-11-15T02:08:16;7.30;;;4.60;;
64210;SDS011;50528;48.514;14.394;2022-11-15T02:09:41;7.60;;;4.70;;
64210;SDS011;50528;48.514;14.394;2022-11-15T02:11:07;6.40;;;4.30;;
64210;SDS011;50528;48.514;14.394;2022-11-15T02:12:29;7.00;;;4.80;;
64210;SDS011;50528;48.514;14.394;2022-11-15T02:13:53;6.90;;;4.60;;
64210;SDS011;50528;48.514;14.394;2022-11-15T02:15:18;6.60;;;4.40;;
64210;SDS011;50528;48.514;14.394;2022-11-15T02:18:44;7.80;;;4.30;;
64210;SDS011;50528;48.514;14.394;2022-11-15T02:25:51;7.10;;;4.90;;
64210;SDS011;50528;48.514;14.394;2022-11-15T02:29:06;6.60;;;4.50;;
64210;SDS011;50528;48.514;14.394;2022-11-15T02:30:39;7.70;;;4.70;;
64210;SDS011;50528;48.514;14.394;2022-11-15T02:32:07;7.10;;;4.60;;
64210;SDS011;50528;48.514;14.394;2022-11-15T02:35:52;7.60;;;4.70;;
64210;SDS011;50528;48.514;14.394;2022-11-15T02:39:20;6.40;;;4.50;;
64210;SDS011;50528;48.514;14.394;2022-11-15T02:40:52;7.20;;;4.20;;
64210;SDS011;50528;48.514;14.394;2022-11-15T02:42:19;7.40;;;4.60;;
64210;SDS011;50528;48.514;14.394;2022-11-15T02:44:08;7.40;;;4.70;;
64210;SDS011;50528;48.514;14.394;2022-11-15T02:45:40;8.50;;;4.70;;
64210;SDS011;50528;48.514;14.394;2022-11-15T02:47:10;7.00;;;4.60;;
64210;SDS011;50528;48.514;14.394;2022-11-15T02:48:36;7.50;;;4.80;;
64210;SDS011;50528;48.514;14.394;2022-11-15T02:49:59;6.10;;;4.50;;
64210;SDS011;50528;48.514;14.394;2022-11-15T02:51:24;6.40;;;4.20;;
64210;SDS011;50528;48.514;14.394;2022-11-15T02:52:46;6.50;;;4.50;;
64210;SDS011;50528;48.514;14.394;2022-11-15T02:54:11;6.50;;;4.30;;
64210;SDS011;50528;48.514;14.394;2022-11-15T02:55:36;6.60;;;4.70;;
64210;SDS011;50528;48.514;14.394;2022-11-15T02:57:16;8.10;;;4.30;;
64210;SDS011;50528;48.514;14.394;2022-11-15T02:59:01;6.70;;;4.50;;
64210;SDS011;50528;48.514;14.394;2022-11-15T03:00:35;6.60;;;4.10;;
64210;SDS011;50528;48.514;14.394;2022-11-15T03:02:20;6.10;;;4.00;;
64210;SDS011;50528;48.514;14.394;2022-11-15T03:07:18;7.70;;;5.10;;
64210;SDS011;50528;48.514;14.394;2022-11-15T03:11:40;6.10;;;4.30;;
64210;SDS011;50528;48.514;14.394;2022-11-15T03:13:13;7.70;;;4.70;;
64210;SDS011;50528;48.514;14.394;2022-11-15T03:14:53;6.90;;;4.50;;
64210;SDS011;50528;48.514;14.394;2022-11-15T03:16:30;6.70;;;4.10;;
64210;SDS011;50528;48.514;14.394;2022-11-15T03:18:15;6.80;;;4.40;;
64210;SDS011;50528;48.514;14.394;2022-11-15T03:19:45;5.90;;;4.10;;
64210;SDS011;50528;48.514;14.394;2022-11-15T03:21:08;8.10;;;4.70;;
64210;SDS011;50528;48.514;14.394;2022-11-15T03:22:35;6.60;;;4.00;;
64210;SDS011;50528;48.514;14.394;2022-11-15T03:24:00;7.40;;;4.20;;
64210;SDS011;50528;48.514;14.394;2022-11-15T03:25:27;6.10;;;4.10;;
64210;SDS011;50528;48.514;14.394;2022-11-15T03:26:51;6.80;;;4.50;;
64210;SDS011;50528;48.514;14.394;2022-11-15T03:28:18;6.90;;;4.80;;
64210;SDS011;50528;48.514;14.394;2022-11-15T03:29:47;9.70;;;4.60;;
64210;SDS011;50528;48.514;14.394;2022-11-15T03:31:14;7.70;;;4.30;;
64210;SDS011;50528;48.514;14.394;2022-11-15T03:32:58;7.20;;;4.50;;
64210;SDS011;50528;48.514;14.394;2022-11-15T03:34:44;6.00;;;3.90;;
64210;SDS011;50528;48.514;14.394;2022-11-15T03:36:11;6.00;;;3.70;;
64210;SDS011;50528;48.514;14.394;2022-11-15T03:37:35;5.80;;;4.00;;
64210;SDS011;50528;48.514;14.394;2022-11-15T03:39:05;7.10;;;4.30;;
64210;SDS011;50528;48.514;14.394;2022-11-15T03:40:39;5.50;;;3.70;;
64210;SDS011;50528;48.514;14.394;2022-11-15T03:42:10;6.60;;;3.90;;
64210;SDS011;50528;48.514;14.394;2022-11-15T03:43:40;5.90;;;4.30;;
64210;SDS011;50528;48.514;14.394;2022-11-15T03:46:48;6.30;;;4.30;;
64210;SDS011;50528;48.514;14.394;2022-11-15T03:48:15;6.80;;;4.60;;
64210;SDS011;50528;48.514;14.394;2022-11-15T03:49:49;7.20;;;4.80;;
64210;SDS011;50528;48.514;14.394;2022-11-15T03:51:15;7.60;;;4.60;;
64210;SDS011;50528;48.514;14.394;2022-11-15T03:52:38;6.60;;;4.60;;
64210;SDS011;50528;48.514;14.394;2022-11-15T03:54:05;6.80;;;4.70;;
64210;SDS011;50528;48.514;14.394;2022-11-15T03:55:27;6.40;;;4.60;;
64210;SDS011;50528;48.514;14.394;2022-11-15T03:56:49;6.50;;;4.50;;
64210;SDS011;50528;48.514;14.394;2022-11-15T03:58:13;6.10;;;4.50;;
64210;SDS011;50528;48.514;14.394;2022-11-15T03:59:35;6.10;;;4.00;;
64210;SDS011;50528;48.514;14.394;2022-11-15T04:00:57;6.30;;;4.50;;
64210;SDS011;50528;48.514;14.394;2022-11-15T04:02:21;5.60;;;4.20;;
64210;SDS011;50528;48.514;14.394;2022-11-15T04:03:46;6.90;;;4.40;;
64210;SDS011;50528;48.514;14.394;2022-11-15T04:05:08;6.60;;;4.40;;
64210;SDS011;50528;48.514;14.394;2022-11-15T04:06:31;7.40;;;4.40;;
64210;SDS011;50528;48.514;14.394;2022-11-15T04:07:53;5.90;;;4.30;;
64210;SDS011;50528;48.514;14.394;2022-11-15T04:09:15;5.60;;;4.10;;
64210;SDS011;50528;48.514;14.394;2022-11-15T04:10:37;6.80;;;4.50;;
64210;SDS011;50528;48.514;14.394;2022-11-15T04:12:00;5.70;;;4.10;;
64210;SDS011;50528;48.514;14.394;2022-11-15T04:13:22;6.50;;;4.50;;
64210;SDS011;50528;48.514;14.394;2022-11-15T04:14:43;5.70;;;4.20;;
64210;SDS011;50528;48.514;14.394;2022-11-15T04:16:25;6.30;;;4.20;;
64210;SDS011;50528;48.514;14.394;2022-11-15T04:17:48;6.10;;;4.30;;
64210;SDS011;50528;48.514;14.394;2022-11-15T04:19:15;6.90;;;4.60;;
64210;SDS011;50528;48.514;14.394;2022-11-15T04:20:56;7.00;;;4.30;;
64210;SDS011;50528;48.514;14.394;2022-11-15T04:22:37;6.80;;;4.80;;
64210;SDS011;50528;48.514;14.394;2022-11-15T04:24:20;7.50;;;4.90;;
64210;SDS011;50528;48.514;14.394;2022-11-15T04:25:43;7.00;;;4.50;;
64210;SDS011;50528;48.514;14.394;2022-11-15T04:27:06;6.90;;;4.40;;
64210;SDS011;50528;48.514;14.394;2022-11-15T04:28:34;6.80;;;4.60;;
64210;SDS011;50528;48.514;14.394;2022-11-15T04:29:56;8.00;;;4.70;;
64210;SDS011;50528;48.514;14.394;2022-11-15T04:31:19;7.00;;;4.60;;
64210;SDS011;50528;48.514;14.394;2022-11-15T04:32:41;7.70;;;5.10;;
64210;SDS011;50528;48.514;14.394;2022-11-15T04:34:02;7.60;;;4.70;;
64210;SDS011;50528;48.514;14.394;2022-11-15T04:35:24;6.40;;;4.20;;
64210;SDS011;50528;48.514;14.394;2022-11-15T04:36:46;6.80;;;4.90;;
64210;SDS011;50528;48.514;14.394;2022-11-15T04:38:27;7.00;;;4.80;;
64210;SDS011;50528;48.514;14.394;2022-11-15T04:39:49;8.20;;;4.70;;
64210;SDS011;50528;48.514;14.394;2022-11-15T04:41:11;8.30;;;5.20;;
64210;SDS011;50528;48.514;14.394;2022-11-15T04:42:33;7.40;;;4.90;;
64210;SDS011;50528;48.514;14.394;2022-11-15T04:43:56;7.70;;;5.10;;
64210;SDS011;50528;48.514;14.394;2022-11-15T04:45:18;7.80;;;5.10;;
64210;SDS011;50528;48.514;14.394;2022-11-15T04:46:40;7.50;;;5.10;;
64210;SDS011;50528;48.514;14.394;2022-11-15T04:48:02;6.90;;;4.90;;
64210;SDS011;50528;48.514;14.394;2022-11-15T04:49:24;7.30;;;4.90;;
64210;SDS011;50528;48.514;14.394;2022-11-15T04:50:47;6.90;;;4.70;;
64210;SDS011;50528;48.514;14.394;2022-11-15T04:52:10;7.00;;;4.80;;
64210;SDS011;50528;48.514;14.394;2022-11-15T04:53:32;8.30;;;4.70;;
64210;SDS011;50528;48.514;14.394;2022-11-15T04:54:55;6.40;;;4.60;;
64210;SDS011;50528;48.514;14.394;2022-11-15T04:56:18;8.30;;;5.20;;
64210;SDS011;50528;48.514;14.394;2022-11-15T04:57:40;8.10;;;5.10;;
64210;SDS011;50528;48.514;14.394;2022-11-15T04:59:02;8.00;;;5.00;;
64210;SDS011;50528;48.514;14.394;2022-11-15T05:00:24;8.40;;;5.00;;
64210;SDS011;50528;48.514;14.394;2022-11-15T05:01:46;8.30;;;5.30;;
64210;SDS011;50528;48.514;14.394;2022-11-15T05:03:08;7.70;;;4.80;;
64210;SDS011;50528;48.514;14.394;2022-11-15T05:04:50;8.30;;;4.90;;
64210;SDS011;50528;48.514;14.394;2022-11-15T05:06:12;7.70;;;4.70;;
64210;SDS011;50528;48.514;14.394;2022-11-15T05:07:34;8.60;;;4.90;;
64210;SDS011;50528;48.514;14.394;2022-11-15T05:08:56;8.00;;;4.90;;
64210;SDS011;50528;48.514;14.394;2022-11-15T05:10:19;7.60;;;5.10;;
64210;SDS011;50528;48.514;14.394;2022-11-15T05:11:41;9.30;;;4.70;;
64210;SDS011;50528;48.514;14.394;2022-11-15T05:13:03;8.10;;;4.50;;
64210;SDS011;50528;48.514;14.394;2022-11-15T05:14:25;7.10;;;4.70;;
64210;SDS011;50528;48.514;14.394;2022-11-15T05:15:51;6.80;;;4.70;;
64210;SDS011;50528;48.514;14.394;2022-11-15T05:17:12;7.10;;;4.70;;
64210;SDS011;50528;48.514;14.394;2022-11-15T05:18:34;7.80;;;3.60;;
64210;SDS011;50528;48.514;14.394;2022-11-15T05:19:56;6.40;;;4.20;;
64210;SDS011;50528;48.514;14.394;2022-11-15T05:21:18;7.70;;;4.50;;
64210;SDS011;50528;48.514;14.394;2022-11-15T05:22:41;7.30;;;4.90;;
64210;SDS011;50528;48.514;14.394;2022-11-15T05:24:03;6.80;;;4.50;;
64210;SDS011;50528;48.514;14.394;2022-11-15T05:25:26;7.70;;;4.70;;
64210;SDS011;50528;48.514;14.394;2022-11-15T05:26:48;8.00;;;4.50;;
64210;SDS011;50528;48.514;14.394;2022-11-15T05:28:10;6.80;;;4.90;;
64210;SDS011;50528;48.514;14.394;2022-11-15T05:29:32;7.50;;;4.90;;
64210;SDS011;50528;48.514;14.394;2022-11-15T05:31:00;7.10;;;4.60;;
64210;SDS011;50528;48.514;14.394;2022-11-15T05:32:23;8.00;;;5.20;;
64210;SDS011;50528;48.514;14.394;2022-11-15T05:33:46;7.60;;;5.20;;
64210;SDS011;50528;48.514;14.394;2022-11-15T05:35:08;7.70;;;5.00;;
64210;SDS011;50528;48.514;14.394;2022-11-15T05:36:38;9.40;;;5.20;;
64210;SDS011;50528;48.514;14.394;2022-11-15T05:38:05;7.80;;;5.20;;
64210;SDS011;50528;48.514;14.394;2022-11-15T05:39:27;7.10;;;4.80;;
64210;SDS011;50528;48.514;14.394;2022-11-15T05:40:49;7.40;;;5.10;;
64210;SDS011;50528;48.514;14.394;2022-11-15T05:42:14;7.80;;;5.30;;
64210;SDS011;50528;48.514;14.394;2022-11-15T05:43:40;8.00;;;5.40;;
64210;SDS011;50528;48.514;14.394;2022-11-15T05:45:05;7.00;;;5.20;;
64210;SDS011;50528;48.514;14.394;2022-11-15T05:46:30;7.80;;;5.10;;
64210;SDS011;50528;48.514;14.394;2022-11-15T05:47:55;7.60;;;5.10;;
64210;SDS011;50528;48.514;14.394;2022-11-15T05:49:21;8.10;;;5.40;;
64210;SDS011;50528;48.514;14.394;2022-11-15T05:50:48;9.00;;;5.00;;
64210;SDS011;50528;48.514;14.394;2022-11-15T05:52:12;7.90;;;5.40;;
64210;SDS011;50528;48.514;14.394;2022-11-15T05:53:37;8.20;;;5.70;;
64210;SDS011;50528;48.514;14.394;2022-11-15T05:54:58;8.10;;;4.90;;
64210;SDS011;50528;48.514;14.394;2022-11-15T05:56:21;9.10;;;5.20;;
64210;SDS011;50528;48.514;14.394;2022-11-15T05:57:43;8.50;;;5.40;;
64210;SDS011;50528;48.514;14.394;2022-11-15T05:59:07;8.00;;;4.70;;
64210;SDS011;50528;48.514;14.394;2022-11-15T06:00:34;7.30;;;4.70;;
64210;SDS011;50528;48.514;14.394;2022-11-15T06:01:56;7.20;;;4.50;;
64210;SDS011;50528;48.514;14.394;2022-11-15T06:03:18;7.90;;;4.70;;
64210;SDS011;50528;48.514;14.394;2022-11-15T06:04:40;7.70;;;4.90;;
64210;SDS011;50528;48.514;14.394;2022-11-15T06:06:05;6.90;;;4.80;;
64210;SDS011;50528;48.514;14.394;2022-11-15T06:07:32;8.30;;;5.00;;
64210;SDS011;50528;48.514;14.394;2022-11-15T06:08:54;7.70;;;5.00;;
64210;SDS011;50528;48.514;14.394;2022-11-15T06:10:16;8.40;;;5.40;;
64210;SDS011;50528;48.514;14.394;2022-11-15T06:11:38;8.70;;;5.70;;
64210;SDS011;50528;48.514;14.394;2022-11-15T06:13:01;9.60;;;6.20;;
64210;SDS011;50528;48.514;14.394;2022-11-15T06:14:25;7.60;;;5.40;;
64210;SDS011;50528;48.514;14.394;2022-11-15T06:15:48;9.30;;;6.00;;
64210;SDS011;50528;48.514;14.394;2022-11-15T06:17:10;7.80;;;5.50;;
64210;SDS011;50528;48.514;14.394;2022-11-15T06:18:34;9.50;;;6.20;;
64210;SDS011;50528;48.514;14.394;2022-11-15T06:19:56;9.80;;;6.70;;
64210;SDS011;50528;48.514;14.394;2022-11-15T06:21:18;10.70;;;6.60;;
64210;SDS011;50528;48.514;14.394;2022-11-15T06:22:41;13.00;;;7.20;;
64210;SDS011;50528;48.514;14.394;2022-11-15T06:24:05;15.50;;;9.10;;
64210;SDS011;50528;48.514;14.394;2022-11-15T06:25:30;12.40;;;8.50;;
64210;SDS011;50528;48.514;14.394;2022-11-15T06:26:53;12.60;;;8.30;;
64210;SDS011;50528;48.514;14.394;2022-11-15T06:28:15;12.50;;;7.30;;
64210;SDS011;50528;48.514;14.394;2022-11-15T06:29:37;11.90;;;7.20;;
64210;SDS011;50528;48.514;14.394;2022-11-15T06:31:03;9.80;;;6.40;;
64210;SDS011;50528;48.514;14.394;2022-11-15T06:32:28;10.30;;;6.50;;
64210;SDS011;50528;48.514;14.394;2022-11-15T06:33:51;10.40;;;6.30;;
64210;SDS011;50528;48.514;14.394;2022-11-15T06:35:13;10.80;;;6.70;;
64210;SDS011;50528;48.514;14.394;2022-11-15T06:36:35;9.40;;;6.30;;
64210;SDS011;50528;48.514;14.394;2022-11-15T06:38:02;9.80;;;6.50;;
64210;SDS011;50528;48.514;14.394;2022-11-15T06:39:28;12.80;;;7.10;;
64210;SDS011;50528;48.514;14.394;2022-11-15T06:40:50;12.70;;;7.70;;
64210;SDS011;50528;48.514;14.394;2022-11-15T06:42:13;12.30;;;7.70;;
64210;SDS011;50528;48.514;14.394;2022-11-15T06:43:35;12.10;;;7.80;;
64210;SDS011;50528;48.514;14.394;2022-11-15T06:44:58;11.80;;;7.70;;
64210;SDS011;50528;48.514;14.394;2022-11-15T06:46:20;11.10;;;7.70;;
64210;SDS011;50528;48.514;14.394;2022-11-15T06:47:45;12.50;;;8.00;;
64210;SDS011;50528;48.514;14.394;2022-11-15T06:49:08;15.40;;;7.80;;
64210;SDS011;50528;48.514;14.394;2022-11-15T06:50:34;11.90;;;7.80;;
64210;SDS011;50528;48.514;14.394;2022-11-15T06:51:56;12.60;;;8.10;;
64210;SDS011;50528;48.514;14.394;2022-11-15T06:53:18;14.10;;;8.70;;
64210;SDS011;50528;48.514;14.394;2022-11-15T06:54:40;13.30;;;8.50;;
64210;SDS011;50528;48.514;14.394;2022-11-15T06:56:03;13.90;;;9.00;;
64210;SDS011;50528;48.514;14.394;2022-11-15T06:57:27;13.20;;;9.20;;
64210;SDS011;50528;48.514;14.394;2022-11-15T06:58:48;14.40;;;9.10;;
64210;SDS011;50528;48.514;14.394;2022-11-15T07:00:11;14.20;;;9.00;;
64210;SDS011;50528;48.514;14.394;2022-11-15T07:01:34;13.30;;;7.50;;
64210;SDS011;50528;48.514;14.394;2022-11-15T07:02:59;12.00;;;7.20;;
64210;SDS011;50528;48.514;14.394;2022-11-15T07:04:22;11.20;;;7.20;;
64210;SDS011;50528;48.514;14.394;2022-11-15T07:05:51;13.00;;;7.90;;
64210;SDS011;50528;48.514;14.394;2022-11-15T07:07:19;14.00;;;8.60;;
64210;SDS011;50528;48.514;14.394;2022-11-15T07:08:43;14.00;;;8.10;;
64210;SDS011;50528;48.514;14.394;2022-11-15T07:10:05;13.70;;;8.40;;
64210;SDS011;50528;48.514;14.394;2022-11-15T07:11:28;13.70;;;8.90;;
64210;SDS011;50528;48.514;14.394;2022-11-15T07:12:53;13.80;;;8.30;;
64210;SDS011;50528;48.514;14.394;2022-11-15T07:14:16;16.90;;;10.30;;
64210;SDS011;50528;48.514;14.394;2022-11-15T07:15:38;14.50;;;9.60;;
64210;SDS011;50528;48.514;14.394;2022-11-15T07:17:03;15.40;;;10.40;;
64210;SDS011;50528;48.514;14.394;2022-11-15T07:18:26;14.90;;;10.30;;
64210;SDS011;50528;48.514;14.394;2022-11-15T07:19:49;14.50;;;9.90;;
64210;SDS011;50528;48.514;14.394;2022-11-15T07:21:14;15.70;;;10.20;;
64210;SDS011;50528;48.514;14.394;2022-11-15T07:22:36;14.90;;;9.90;;
64210;SDS011;50528;48.514;14.394;2022-11-15T07:23:59;15.70;;;8.90;;
64210;SDS011;50528;48.514;14.394;2022-11-15T07:25:21;12.90;;;9.20;;
64210;SDS011;50528;48.514;14.394;2022-11-15T07:26:43;12.30;;;8.80;;
64210;SDS011;50528;48.514;14.394;2022-11-15T07:28:05;13.00;;;8.80;;
64210;SDS011;50528;48.514;14.394;2022-11-15T07:29:28;11.50;;;8.40;;
64210;SDS011;50528;48.514;14.394;2022-11-15T07:30:49;13.00;;;8.20;;
64210;SDS011;50528;48.514;14.394;2022-11-15T07:32:12;12.10;;;8.30;;
64210;SDS011;50528;48.514;14.394;2022-11-15T07:33:33;10.80;;;7.90;;
64210;SDS011;50528;48.514;14.394;2022-11-15T07:34:56;14.10;;;8.10;;
64210;SDS011;50528;48.514;14.394;2022-11-15T07:36:18;11.90;;;7.60;;
64210;SDS011;50528;48.514;14.394;2022-11-15T07:37:40;9.60;;;7.00;;
64210;SDS011;50528;48.514;14.394;2022-11-15T07:39:02;11.00;;;7.50;;
64210;SDS011;50528;48.514;14.394;2022-11-15T07:40:24;10.70;;;7.50;;
64210;SDS011;50528;48.514;14.394;2022-11-15T07:41:52;10.40;;;7.10;;
64210;SDS011;50528;48.514;14.394;2022-11-15T07:43:34;10.70;;;7.00;;
64210;SDS011;50528;48.514;14.394;2022-11-15T07:44:56;10.20;;;7.10;;
64210;SDS011;50528;48.514;14.394;2022-11-15T07:46:19;9.40;;;7.00;;
64210;SDS011;50528;48.514;14.394;2022-11-15T07:47:44;10.20;;;7.30;;
64210;SDS011;50528;48.514;14.394;2022-11-15T07:49:07;10.10;;;7.20;;
64210;SDS011;50528;48.514;14.394;2022-11-15T07:50:29;10.30;;;7.60;;
64210;SDS011;50528;48.514;14.394;2022-11-15T07:51:52;11.40;;;8.20;;
64210;SDS011;50528;48.514;14.394;2022-11-15T07:53:14;10.10;;;7.60;;
64210;SDS011;50528;48.514;14.394;2022-11-15T07:54:36;10.60;;;7.50;;
64210;SDS011;50528;48.514;14.394;2022-11-15T07:55:58;10.00;;;7.40;;
64210;SDS011;50528;48.514;14.394;2022-11-15T07:57:20;11.00;;;7.90;;
64210;SDS011;50528;48.514;14.394;2022-11-15T07:58:44;12.10;;;7.60;;
64210;SDS011;50528;48.514;14.394;2022-11-15T08:00:07;14.40;;;8.00;;
64210;SDS011;50528;48.514;14.394;2022-11-15T08:01:30;13.80;;;7.80;;
64210;SDS011;50528;48.514;14.394;2022-11-15T08:02:52;11.30;;;8.00;;
64210;SDS011;50528;48.514;14.394;2022-11-15T08:04:22;8.40;;;6.40;;
64210;SDS011;50528;48.514;14.394;2022-11-15T08:05:49;8.10;;;6.10;;
64210;SDS011;50528;48.514;14.394;2022-11-15T08:07:13;7.70;;;5.80;;
64210;SDS011;50528;48.514;14.394;2022-11-15T08:08:35;8.40;;;5.80;;
64210;SDS011;50528;48.514;14.394;2022-11-15T08:09:57;8.80;;;5.60;;
64210;SDS011;50528;48.514;14.394;2022-11-15T08:11:20;8.00;;;5.10;;
64210;SDS011;50528;48.514;14.394;2022-11-15T08:12:42;8.30;;;5.60;;
64210;SDS011;50528;48.514;14.394;2022-11-15T08:14:07;7.50;;;5.40;;
64210;SDS011;50528;48.514;14.394;2022-11-15T08:15:33;8.30;;;5.20;;
64210;SDS011;50528;48.514;14.394;2022-11-15T08:16:55;8.60;;;4.60;;
64210;SDS011;50528;48.514;14.394;2022-11-15T08:18:18;6.90;;;4.50;;
64210;SDS011;50528;48.514;14.394;2022-11-15T08:19:42;9.10;;;4.70;;
64210;SDS011;50528;48.514;14.394;2022-11-15T08:21:05;6.40;;;4.10;;
64210;SDS011;50528;48.514;14.394;2022-11-15T08:22:28;8.00;;;4.30;;
64210;SDS011;50528;48.514;14.394;2022-11-15T08:23:49;6.10;;;4.20;;
64210;SDS011;50528;48.514;14.394;2022-11-15T08:25:12;6.80;;;4.00;;
64210;SDS011;50528;48.514;14.394;2022-11-15T08:26:34;5.30;;;3.80;;
64210;SDS011;50528;48.514;14.394;2022-11-15T08:27:59;8.10;;;4.00;;
64210;SDS011;50528;48.514;14.394;2022-11-15T08:29:23;5.70;;;3.90;;
64210;SDS011;50528;48.514;14.394;2022-11-15T08:30:45;4.70;;;3.60;;
64210;SDS011;50528;48.514;14.394;2022-11-15T08:32:07;4.70;;;3.60;;
64210;SDS011;50528;48.514;14.394;2022-11-15T08:33:30;6.60;;;3.50;;
64210;SDS011;50528;48.514;14.394;2022-11-15T08:34:54;5.20;;;3.10;;
64210;SDS011;50528;48.514;14.394;2022-11-15T08:36:17;4.40;;;3.10;;
64210;SDS011;50528;48.514;14.394;2022-11-15T08:37:40;4.00;;;2.90;;
64210;SDS011;50528;48.514;14.394;2022-11-15T08:39:02;4.80;;;3.30;;
64210;SDS011;50528;48.514;14.394;2022-11-15T08:40:24;5.60;;;3.50;;
64210;SDS011;50528;48.514;14.394;2022-11-15T08:41:48;4.40;;;3.00;;
64210;SDS011;50528;48.514;14.394;2022-11-15T08:43:10;4.30;;;3.10;;
64210;SDS011;50528;48.514;14.394;2022-11-15T08:44:36;4.70;;;3.10;;